Anvik, Alaska
Current Conditions -  °F | °C
As of 6:16 AM on Monday 22 Dec 2014 (Local Time) from PANV Reporting Station
Overcast Overcast  
Wind Chill:   Ceiling: 4100
Heat Index:   Visibility: 10mi
Dew Point:   Wind: 0mph
Humidity: 85%   Direction: NA
Pressure: 29.79"   Gusts: NA
Location:  62.66°N, 160.21°W
Report Text: PANV 221516Z AUTO 00000KT 10SM OVC041 M16/M18 A2979 RMK AO1
Loading
Personal Weather Stations






























Interactive Weather Map New forecast layout! Learn more

10-Day Weather Forecast

Advertisements
Track Severe Weather on mobile